This is the latest recevied weather packets stored in our database for station/object AE6EO. If no packets are shown the sender has not sent any weather packets the latest 10 day(s).
| Time | Temp. | Humidity | Pressure | Rain* | Wind** | Luminosity | Snow |
|---|---|---|---|---|---|---|---|
| 1777314315 | 16.67° C | 58% | 1018.3 hPa | 0 mm | - | - | - |
| 1777311917 | 15.56° C | 63% | 1018.2 hPa | 0 mm | - | - | - |
| 1777310139 | 15.56° C | 65% | 1018 hPa | 0 mm | - | - | - |
| 1777309517 | 15.56° C | 64% | 1018 hPa | 0 mm | - | - | - |
| 1777304117 | 13.33° C | 73% | 1017.8 hPa | 0 mm | - | - | - |
| 1777302916 | 13.33° C | 73% | 1017.7 hPa | 0 mm | - | - | - |
| 1777298715 | 12.22° C | 77% | 1017.1 hPa | 0 mm | - | - | - |
| 1777298138 | 12.22° C | 77% | 1017 hPa | 0 mm | - | - | - |
| 1777290917 | 12.22° C | 76% | 1016.3 hPa | 0 mm | - | - | - |
| 1777285516 | 12.22° C | 75% | 1016.2 hPa | 0 mm | - | - | - |
| 1777284318 | 11.67° C | 75% | 1016.2 hPa | 0 mm | - | - | - |
| 1777278317 | 11.67° C | 77% | 1016.6 hPa | 0 mm | - | - | - |
| 1777277115 | 11.67° C | 77% | 1016.6 hPa | 0 mm | - | - | - |
| 1777275317 | 11.67° C | 78% | 1016.5 hPa | 0 mm | - | - | - |
| 1777273536 | 11.11° C | 78% | 1016.3 hPa | 0 mm | - | - | - |
| 1777268137 | 12.22° C | 73% | 1016 hPa | 0 mm | - | - | - |
| 1777266916 | 12.78° C | 72% | 1016 hPa | 0 mm | - | - | - |
| 1777266317 | 12.78° C | 71% | 1016 hPa | 0 mm | - | - | - |
| 1777264558 | 12.78° C | 71% | 1016 hPa | 0 mm | - | - | - |
| 1777260317 | 13.33° C | 67% | 1015.5 hPa | 0 mm | - | - | - |
| 1777259115 | 13.89° C | 64% | 1015.3 hPa | 0 mm | - | - | - |
| 1777253716 | 15.56° C | 58% | 1014.8 hPa | 0 mm | - | - | - |
| 1777246517 | 18.33° C | 48% | 1014.3 hPa | 0 mm | - | - | - |
| 1777242938 | 18.33° C | 45% | 1014.2 hPa | 0 mm | - | - | - |
| 1777241716 | 18.33° C | 44% | 1014.3 hPa | 0 mm | - | - | - |
* Rain latest hour (hover to see other rain measurements)
** Current wind speed in m/s (hover to see current wind gust speed)